Time,TemperatureF,DewpointF,PressureIn,WindDirection,WindDirectionDegrees,WindSpeedMPH,WindSpeedGustMPH,Humidity,HourlyPrecipIn,Conditions,Clouds,dailyrainin,SoftwareType,DateUTC
2013-03-16 00:13:00,40.1,27.0,29.93,WSW,249,9.0,16.0,59,0.00,,,0.00,weatherlink.com 1.10,2013-03-16 06:13:00,
2013-03-16 00:28:00,39.8,27.0,29.91,WSW,254,9.0,19.0,61,0.00,,,0.00,weatherlink.com 1.10,2013-03-16 06:28:00,
2013-03-16 00:44:00,39.7,27.0,29.91,WSW,257,11.0,21.0,60,0.00,,,0.00,weatherlink.com 1.10,2013-03-16 06:44:00,
2013-03-16 00:59:00,39.8,26.0,29.92,WNW,284,3.0,15.0,59,0.00,,,0.00,weatherlink.com 1.10,2013-03-16 06:59:00,
2013-03-16 01:14:00,39.5,26.0,29.93,WSW,257,1.0,11.0,60,0.00,,,0.00,weatherlink.com 1.10,2013-03-16 07:14:00,
2013-03-16 01:29:00,39.1,27.0,29.94,WSW,254,4.0,10.0,61,0.00,,,0.00,weatherlink.com 1.10,2013-03-16 07:29:00,
2013-03-16 01:44:00,38.9,26.0,29.94,South,188,8.0,13.0,61,0.00,,,0.00,weatherlink.com 1.10,2013-03-16 07:44:00,
2013-03-16 01:59:00,38.9,26.0,29.95,SSW,198,4.0,8.0,61,0.00,,,0.00,weatherlink.com 1.10,2013-03-16 07:59:00,
2013-03-16 02:14:00,38.6,26.0,29.95,WSW,250,4.0,13.0,62,0.00,,,0.00,weatherlink.com 1.10,2013-03-16 08:14:00,
2013-03-16 02:29:00,38.4,26.0,29.94,SSW,206,6.0,11.0,62,0.00,,,0.00,weatherlink.com 1.10,2013-03-16 08:29:00,
2013-03-16 02:44:00,38.0,26.0,29.94,SW,232,4.0,15.0,62,0.00,,,0.00,weatherlink.com 1.10,2013-03-16 08:44:00,
2013-03-16 02:59:00,38.0,26.0,29.96,SW,228,3.0,15.0,63,0.00,,,0.00,weatherlink.com 1.10,2013-03-16 08:59:00,
2013-03-16 03:14:00,38.1,27.0,29.96,SW,214,7.0,17.0,64,0.00,,,0.00,weatherlink.com 1.10,2013-03-16 09:14:00,
2013-03-16 03:29:00,37.9,27.0,29.96,WSW,243,13.0,18.0,64,0.00,,,0.00,weatherlink.com 1.10,2013-03-16 09:29:00,
2013-03-16 03:44:00,37.7,26.0,29.95,WSW,237,10.0,14.0,63,0.00,,,0.00,weatherlink.com 1.10,2013-03-16 09:44:00,
2013-03-16 03:59:00,37.7,25.0,29.95,SW,221,2.0,13.0,61,0.00,,,0.00,weatherlink.com 1.10,2013-03-16 09:59:00,
2013-03-16 04:14:00,38.0,25.0,29.96,SSW,213,6.0,13.0,61,0.00,,,0.00,weatherlink.com 1.10,2013-03-16 10:14:00,
2013-03-16 04:29:00,38.4,26.0,29.95,South,175,7.0,17.0,61,0.00,,,0.00,weatherlink.com 1.10,2013-03-16 10:29:00,
2013-03-16 04:44:00,38.3,25.0,29.95,SSW,200,6.0,10.0,60,0.00,,,0.00,weatherlink.com 1.10,2013-03-16 10:44:00,
2013-03-16 04:59:00,38.0,25.0,29.94,SW,230,4.0,13.0,60,0.00,,,0.00,weatherlink.com 1.10,2013-03-16 10:59:00,
2013-03-16 05:14:00,37.9,26.0,29.94,WSW,257,1.0,6.0,63,0.00,,,0.00,weatherlink.com 1.10,2013-03-16 11:14:00,
2013-03-16 05:29:00,37.2,26.0,29.95,WSW,257,0.0,2.0,64,0.00,,,0.00,weatherlink.com 1.10,2013-03-16 11:29:00,
2013-03-16 05:44:00,36.4,25.0,29.95,ESE,108,0.0,2.0,63,0.00,,,0.00,weatherlink.com 1.10,2013-03-16 11:44:00,
2013-03-16 05:59:00,35.6,25.0,29.94,ESE,108,0.0,3.0,65,0.00,,,0.00,weatherlink.com 1.10,2013-03-16 11:59:00,
2013-03-16 06:14:00,34.5,25.0,29.94,SSE,162,1.0,4.0,67,0.00,,,0.00,weatherlink.com 1.10,2013-03-16 12:14:00,
2013-03-16 06:29:00,33.4,24.0,29.94,SSE,163,1.0,4.0,69,0.00,,,0.00,weatherlink.com 1.10,2013-03-16 12:29:00,
2013-03-16 06:59:00,33.3,25.0,29.94,SSW,193,5.0,7.0,72,0.00,,,0.00,weatherlink.com 1.10,2013-03-16 12:59:00,
2013-03-16 07:14:00,33.1,25.0,29.93,South,184,4.0,6.0,72,0.00,,,0.00,weatherlink.com 1.10,2013-03-16 13:14:00,
2013-03-16 07:29:00,32.9,25.0,29.93,South,186,3.0,5.0,73,0.00,,,0.00,weatherlink.com 1.10,2013-03-16 13:29:00,
2013-03-16 07:44:00,33.1,25.0,29.94,South,186,0.0,1.0,73,0.00,,,0.00,weatherlink.com 1.10,2013-03-16 13:44:00,
2013-03-16 07:59:00,33.6,25.0,29.93,SSW,207,2.0,5.0,70,0.00,,,0.00,weatherlink.com 1.10,2013-03-16 13:59:00,
2013-03-16 08:14:00,34.5,25.0,29.93,SE,144,2.0,5.0,68,0.00,,,0.00,weatherlink.com 1.10,2013-03-16 14:14:00,
2013-03-16 08:29:00,35.5,25.0,29.93,ESE,123,1.0,3.0,65,0.00,,,0.00,weatherlink.com 1.10,2013-03-16 14:29:00,
2013-03-16 08:44:00,36.2,26.0,29.93,ESE,115,0.0,4.0,66,0.00,,,0.00,weatherlink.com 1.10,2013-03-16 14:44:00,
2013-03-16 08:59:00,35.9,27.0,29.94,ENE,65,3.0,9.0,70,0.00,,,0.00,weatherlink.com 1.10,2013-03-16 14:59:00,
2013-03-16 09:15:00,34.3,26.0,29.93,ENE,62,0.0,2.0,73,0.00,,,0.00,weatherlink.com 1.10,2013-03-16 15:15:00,
2013-03-16 09:30:00,33.5,26.0,29.93,ENE,62,0.0,1.0,75,0.00,,,0.00,weatherlink.com 1.10,2013-03-16 15:30:00,
2013-03-16 09:45:00,33.2,27.0,29.93,NE,38,0.0,6.0,78,0.00,,,0.00,weatherlink.com 1.10,2013-03-16 15:45:00,
2013-03-16 10:00:00,33.0,27.0,29.94,NE,36,1.0,5.0,78,0.00,,,0.00,weatherlink.com 1.10,2013-03-16 16:00:00,
2013-03-16 10:15:00,32.9,27.0,29.93,ENE,78,0.0,3.0,79,0.00,,,0.00,weatherlink.com 1.10,2013-03-16 16:15:00,
2013-03-16 10:30:00,33.9,27.0,29.93,ENE,78,1.0,3.0,77,0.00,,,0.00,weatherlink.com 1.10,2013-03-16 16:30:00,
2013-03-16 10:45:00,34.3,27.0,29.94,NE,49,3.0,5.0,76,0.00,,,0.00,weatherlink.com 1.10,2013-03-16 16:45:00,
2013-03-16 11:00:00,33.9,27.0,29.95,NE,46,0.0,5.0,77,0.00,,,0.00,weatherlink.com 1.10,2013-03-16 17:00:00,
2013-03-16 11:15:00,34.4,28.0,29.94,NE,46,1.0,2.0,77,0.00,,,0.00,weatherlink.com 1.10,2013-03-16 17:15:00,
2013-03-16 11:30:00,35.6,28.0,29.93,ENE,69,0.0,3.0,75,0.00,,,0.00,weatherlink.com 1.10,2013-03-16 17:30:00,
2013-03-16 11:45:00,36.3,28.0,29.93,ENE,69,3.0,4.0,73,0.00,,,0.00,weatherlink.com 1.10,2013-03-16 17:45:00,
2013-03-16 12:00:00,37.2,29.0,29.92,ENE,69,2.0,4.0,71,0.00,,,0.00,weatherlink.com 1.10,2013-03-16 18:00:00,
2013-03-16 12:15:00,37.1,28.0,29.92,ENE,68,1.0,4.0,71,0.00,,,0.00,weatherlink.com 1.10,2013-03-16 18:15:00,
2013-03-16 12:30:00,37.3,29.0,29.91,ENE,69,0.0,4.0,71,0.00,,,0.00,weatherlink.com 1.10,2013-03-16 18:30:00,
2013-03-16 12:45:00,37.4,28.0,29.91,ENE,65,1.0,4.0,70,0.00,,,0.00,weatherlink.com 1.10,2013-03-16 18:45:00,
2013-03-16 13:00:00,37.7,29.0,29.90,ENE,68,1.0,3.0,71,0.00,,,0.00,weatherlink.com 1.10,2013-03-16 19:00:00,
2013-03-16 13:15:00,38.0,29.0,29.89,NE,53,2.0,5.0,70,0.00,,,0.00,weatherlink.com 1.10,2013-03-16 19:15:00,
2013-03-16 13:30:00,38.4,29.0,29.89,NE,37,2.0,6.0,68,0.00,,,0.00,weatherlink.com 1.10,2013-03-16 19:30:00,
2013-03-16 13:45:00,38.6,29.0,29.89,NE,42,2.0,7.0,68,0.00,,,0.00,weatherlink.com 1.10,2013-03-16 19:45:00,
2013-03-16 14:00:00,39.1,29.0,29.88,North,360,3.0,7.0,67,0.00,,,0.00,weatherlink.com 1.10,2013-03-16 20:00:00,
2013-03-16 14:15:00,39.4,29.0,29.88,ENE,69,0.0,4.0,67,0.00,,,0.00,weatherlink.com 1.10,2013-03-16 20:15:00,
2013-03-16 14:30:00,40.3,30.0,29.87,ENE,68,0.0,2.0,66,0.00,,,0.00,weatherlink.com 1.10,2013-03-16 20:30:00,
2013-03-16 14:45:00,41.0,28.0,29.88,SW,223,4.0,14.0,60,0.00,,,0.00,weatherlink.com 1.10,2013-03-16 20:45:00,
2013-03-16 15:00:00,41.7,27.0,29.87,NW,325,1.0,18.0,56,0.00,,,0.00,weatherlink.com 1.10,2013-03-16 21:00:00,
2013-03-16 15:15:00,41.9,27.0,29.88,WSW,248,12.0,20.0,56,0.00,,,0.00,weatherlink.com 1.10,2013-03-16 21:15:00,
2013-03-16 15:30:00,41.4,27.0,29.88,WSW,238,12.0,19.0,58,0.00,,,0.00,weatherlink.com 1.10,2013-03-16 21:30:00,
2013-03-16 15:45:00,40.9,28.0,29.89,West,274,4.0,17.0,61,0.00,,,0.00,weatherlink.com 1.10,2013-03-16 21:45:00,
2013-03-16 16:00:00,41.8,28.0,29.88,WSW,243,4.0,16.0,58,0.00,,,0.00,weatherlink.com 1.10,2013-03-16 22:00:00,
2013-03-16 16:15:00,43.5,27.0,29.88,WSW,242,5.0,15.0,53,0.00,,,0.00,weatherlink.com 1.10,2013-03-16 22:15:00,
2013-03-16 16:30:00,44.2,25.0,29.89,NW,307,9.0,18.0,48,0.00,,,0.00,weatherlink.com 1.10,2013-03-16 22:30:00,
2013-03-16 16:45:00,43.9,25.0,29.90,SW,236,7.0,19.0,47,0.00,,,0.00,weatherlink.com 1.10,2013-03-16 22:45:00,
2013-03-16 17:00:00,43.8,29.0,29.91,NE,44,1.0,13.0,57,0.00,,,0.00,weatherlink.com 1.10,2013-03-16 23:00:00,
2013-03-16 17:15:00,41.7,29.0,29.91,NNE,23,1.0,8.0,62,0.00,,,0.00,weatherlink.com 1.10,2013-03-16 23:15:00,
2013-03-16 17:30:00,39.6,29.0,29.92,ENE,74,2.0,6.0,67,0.00,,,0.00,weatherlink.com 1.10,2013-03-16 23:30:00,
2013-03-16 17:45:00,39.3,29.0,29.92,East,95,0.0,2.0,68,0.00,,,0.00,weatherlink.com 1.10,2013-03-16 23:45:00,
2013-03-16 18:00:00,39.1,29.0,29.91,SSE,161,0.0,2.0,67,0.00,,,0.00,weatherlink.com 1.10,2013-03-17 00:00:00,
2013-03-16 18:15:00,38.7,29.0,29.91,WNW,284,5.0,8.0,67,0.00,,,0.00,weatherlink.com 1.10,2013-03-17 00:15:00,
2013-03-16 18:30:00,38.3,24.0,29.91,NW,315,4.0,15.0,57,0.00,,,0.00,weatherlink.com 1.10,2013-03-17 00:30:00,
2013-03-16 18:45:00,38.4,23.0,29.92,NW,311,6.0,13.0,54,0.00,,,0.00,weatherlink.com 1.10,2013-03-17 00:45:00,
2013-03-16 19:00:00,38.2,23.0,29.92,WSW,255,6.0,15.0,55,0.00,,,0.00,weatherlink.com 1.10,2013-03-17 01:00:00,
2013-03-16 19:15:00,37.7,23.0,29.93,West,280,2.0,14.0,55,0.00,,,0.00,weatherlink.com 1.10,2013-03-17 01:15:00,
2013-03-16 19:30:00,37.2,22.0,29.93,WNW,283,6.0,14.0,55,0.00,,,0.00,weatherlink.com 1.10,2013-03-17 01:30:00,
2013-03-16 19:45:00,36.7,22.0,29.94,WSW,248,3.0,14.0,56,0.00,,,0.00,weatherlink.com 1.10,2013-03-17 01:45:00,
2013-03-16 20:00:00,36.4,25.0,29.95,NNE,26,0.0,4.0,63,0.00,,,0.00,weatherlink.com 1.10,2013-03-17 02:00:00,
2013-03-16 20:15:00,35.6,21.0,29.94,WSW,255,9.0,18.0,56,0.00,,,0.00,weatherlink.com 1.10,2013-03-17 02:15:00,
2013-03-16 20:30:00,35.8,20.0,29.95,NW,311,2.0,13.0,53,0.00,,,0.00,weatherlink.com 1.10,2013-03-17 02:30:00,
2013-03-16 20:45:00,35.7,20.0,29.96,NW,321,5.0,13.0,54,0.00,,,0.00,weatherlink.com 1.10,2013-03-17 02:45:00,
2013-03-16 21:00:00,35.6,22.0,29.97,NW,325,3.0,7.0,57,0.00,,,0.00,weatherlink.com 1.10,2013-03-17 03:00:00,
2013-03-16 21:30:00,33.8,21.0,29.98,NW,319,2.0,7.0,61,0.00,,,0.00,weatherlink.com 1.10,2013-03-17 03:30:00,
2013-03-16 21:45:00,33.3,22.0,29.97,WNW,286,4.0,8.0,63,0.00,,,0.00,weatherlink.com 1.10,2013-03-17 03:45:00,
2013-03-16 22:00:00,32.8,22.0,29.97,WSW,254,10.0,13.0,64,0.00,,,0.00,weatherlink.com 1.10,2013-03-17 04:00:00,
2013-03-16 22:15:00,32.8,21.0,29.97,WNW,289,3.0,14.0,63,0.00,,,0.00,weatherlink.com 1.10,2013-03-17 04:15:00,
2013-03-16 22:30:00,33.3,21.0,29.98,SW,227,8.0,13.0,60,0.00,,,0.00,weatherlink.com 1.10,2013-03-17 04:30:00,
2013-03-16 22:45:00,33.9,21.0,29.98,SW,232,8.0,12.0,60,0.00,,,0.00,weatherlink.com 1.10,2013-03-17 04:45:00,
2013-03-16 23:00:00,34.3,22.0,29.97,West,275,4.0,13.0,60,0.00,,,0.00,weatherlink.com 1.10,2013-03-17 05:00:00,
2013-03-16 23:15:00,34.3,21.0,29.97,WSW,253,3.0,13.0,59,0.00,,,0.00,weatherlink.com 1.10,2013-03-17 05:15:00,
2013-03-16 23:30:00,34.2,21.0,29.97,WSW,254,7.0,13.0,58,0.00,,,0.00,weatherlink.com 1.10,2013-03-17 05:30:00,
2013-03-16 23:45:00,34.2,21.0,29.96,SW,227,10.0,14.0,58,0.00,,,0.00,weatherlink.com 1.10,2013-03-17 05:45:00,